sensor_id;sensor_type;location;lat;lon;timestamp;pressure;altitude;pressure_sealevel;temperature;humidity
48553;BME280;34335;51.566;6.994;2023-01-05T00:01:00;100977.31;;;10.39;100.00
48553;BME280;34335;51.566;6.994;2023-01-05T00:06:46;100969.44;;;10.29;100.00
48553;BME280;34335;51.566;6.994;2023-01-05T00:09:15;100974.66;;;10.28;100.00
48553;BME280;34335;51.566;6.994;2023-01-05T00:11:41;100983.31;;;10.35;100.00
48553;BME280;34335;51.566;6.994;2023-01-05T00:14:28;100965.09;;;10.30;100.00
48553;BME280;34335;51.566;6.994;2023-01-05T00:17:18;100977.22;;;10.26;100.00
48553;BME280;34335;51.566;6.994;2023-01-05T00:20:04;100973.75;;;10.27;100.00
48553;BME280;34335;51.566;6.994;2023-01-05T00:22:53;100973.72;;;10.18;100.00
48553;BME280;34335;51.566;6.994;2023-01-05T00:25:24;100979.81;;;10.19;100.00
48553;BME280;34335;51.566;6.994;2023-01-05T00:27:50;100974.59;;;10.14;100.00
48553;BME280;34335;51.566;6.994;2023-01-05T00:30:20;100965.03;;;10.10;100.00
48553;BME280;34335;51.566;6.994;2023-01-05T00:32:46;100972.78;;;10.05;100.00
48553;BME280;34335;51.566;6.994;2023-01-05T00:35:13;100983.22;;;10.08;100.00
48553;BME280;34335;51.566;6.994;2023-01-05T00:37:38;100963.25;;;10.06;100.00
48553;BME280;34335;51.566;6.994;2023-01-05T00:40:05;100971.06;;;10.10;100.00
48553;BME280;34335;51.566;6.994;2023-01-05T00:42:31;100971.88;;;9.97;100.00
48553;BME280;34335;51.566;6.994;2023-01-05T00:44:56;100971.00;;;9.93;100.00
48553;BME280;34335;51.566;6.994;2023-01-05T00:47:21;100971.81;;;9.89;100.00
48553;BME280;34335;51.566;6.994;2023-01-05T00:49:47;100973.53;;;9.86;100.00
48553;BME280;34335;51.566;6.994;2023-01-05T00:52:12;100981.31;;;9.81;100.00
48553;BME280;34335;51.566;6.994;2023-01-05T00:54:37;100989.13;;;9.84;100.00
48553;BME280;34335;51.566;6.994;2023-01-05T00:57:03;100983.09;;;9.85;100.00
48553;BME280;34335;51.566;6.994;2023-01-05T00:59:30;100991.72;;;9.87;100.00
48553;BME280;34335;51.566;6.994;2023-01-05T01:01:55;100992.59;;;9.83;100.00
48553;BME280;34335;51.566;6.994;2023-01-05T01:04:20;100992.56;;;9.81;100.00
48553;BME280;34335;51.566;6.994;2023-01-05T01:06:46;100984.78;;;9.86;100.00
48553;BME280;34335;51.566;6.994;2023-01-05T01:09:12;100993.44;;;9.80;100.00
48553;BME280;34335;51.566;6.994;2023-01-05T01:11:38;100992.53;;;9.77;100.00
48553;BME280;34335;51.566;6.994;2023-01-05T01:14:08;100990.00;;;9.83;100.00
48553;BME280;34335;51.566;6.994;2023-01-05T01:16:34;100987.38;;;9.86;100.00
48553;BME280;34335;51.566;6.994;2023-01-05T01:19:00;100980.44;;;9.82;100.00
48553;BME280;34335;51.566;6.994;2023-01-05T01:21:26;100986.47;;;9.75;100.00
48553;BME280;34335;51.566;6.994;2023-01-05T01:23:51;100986.50;;;9.82;100.00
48553;BME280;34335;51.566;6.994;2023-01-05T01:26:17;100989.06;;;9.78;100.00
48553;BME280;34335;51.566;6.994;2023-01-05T01:28:45;100990.81;;;9.79;100.00
48553;BME280;34335;51.566;6.994;2023-01-05T01:31:11;100987.34;;;9.80;100.00
48553;BME280;34335;51.566;6.994;2023-01-05T01:33:38;100988.25;;;9.80;100.00
48553;BME280;34335;51.566;6.994;2023-01-05T01:36:04;101001.19;;;9.77;100.00
48553;BME280;34335;51.566;6.994;2023-01-05T01:38:30;101008.09;;;9.74;100.00
48553;BME280;34335;51.566;6.994;2023-01-05T01:40:56;101016.81;;;9.82;100.00
48553;BME280;34335;51.566;6.994;2023-01-05T01:43:46;101013.38;;;9.85;100.00
48553;BME280;34335;51.566;6.994;2023-01-05T01:46:14;101014.22;;;9.82;100.00
48553;BME280;34335;51.566;6.994;2023-01-05T01:48:45;101016.78;;;9.77;100.00
48553;BME280;34335;51.566;6.994;2023-01-05T01:51:19;101027.25;;;9.88;100.00
48553;BME280;34335;51.566;6.994;2023-01-05T01:53:50;101024.69;;;9.90;100.00
48553;BME280;34335;51.566;6.994;2023-01-05T01:56:19;101032.44;;;9.88;100.00
48553;BME280;34335;51.566;6.994;2023-01-05T01:58:45;101017.69;;;9.86;100.00
48553;BME280;34335;51.566;6.994;2023-01-05T02:01:11;101025.53;;;9.90;100.00
48553;BME280;34335;51.566;6.994;2023-01-05T02:03:37;101047.13;;;9.85;100.00
48553;BME280;34335;51.566;6.994;2023-01-05T02:06:03;101046.28;;;9.87;100.00
48553;BME280;34335;51.566;6.994;2023-01-05T02:08:28;101046.25;;;9.82;100.00
48553;BME280;34335;51.566;6.994;2023-01-05T02:11:17;101054.00;;;9.78;100.00
48553;BME280;34335;51.566;6.994;2023-01-05T02:16:52;101042.75;;;9.77;100.00
48553;BME280;34335;51.566;6.994;2023-01-05T02:25:14;101049.69;;;9.78;100.00
48553;BME280;34335;51.566;6.994;2023-01-05T02:30:55;101043.66;;;9.81;100.00
48553;BME280;34335;51.566;6.994;2023-01-05T02:41:57;101045.25;;;9.65;100.00
48553;BME280;34335;51.566;6.994;2023-01-05T02:44:28;101066.06;;;9.66;100.00
48553;BME280;34335;51.566;6.994;2023-01-05T02:47:04;101050.50;;;9.71;100.00
48553;BME280;34335;51.566;6.994;2023-01-05T02:49:33;101042.69;;;9.66;100.00
48553;BME280;34335;51.566;6.994;2023-01-05T02:52:02;101051.34;;;9.65;100.00
48553;BME280;34335;51.566;6.994;2023-01-05T02:54:38;101051.28;;;9.64;100.00
48553;BME280;34335;51.566;6.994;2023-01-05T02:57:10;101045.22;;;9.62;100.00
48553;BME280;34335;51.566;6.994;2023-01-05T02:59:47;101040.91;;;9.62;100.00
48553;BME280;34335;51.566;6.994;2023-01-05T03:02:23;101066.03;;;9.65;100.00
48553;BME280;34335;51.566;6.994;2023-01-05T03:05:07;101051.28;;;9.61;100.00
48553;BME280;34335;51.566;6.994;2023-01-05T03:07:37;101049.56;;;9.63;100.00
48553;BME280;34335;51.566;6.994;2023-01-05T03:10:04;101061.59;;;9.53;100.00
48553;BME280;34335;51.566;6.994;2023-01-05T03:12:54;101061.63;;;9.56;100.00
48553;BME280;34335;51.566;6.994;2023-01-05T03:15:40;101060.78;;;9.59;100.00
48553;BME280;34335;51.566;6.994;2023-01-05T03:18:09;101058.16;;;9.54;100.00
48553;BME280;34335;51.566;6.994;2023-01-05T03:20:39;101060.72;;;9.51;100.00
48553;BME280;34335;51.566;6.994;2023-01-05T03:23:07;101057.25;;;9.52;100.00
48553;BME280;34335;51.566;6.994;2023-01-05T03:25:53;101069.34;;;9.50;100.00
48553;BME280;34335;51.566;6.994;2023-01-05T03:28:41;101056.31;;;9.45;100.00
48553;BME280;34335;51.566;6.994;2023-01-05T03:31:35;101060.66;;;9.48;100.00
48553;BME280;34335;51.566;6.994;2023-01-05T03:37:43;101055.44;;;9.42;100.00
48553;BME280;34335;51.566;6.994;2023-01-05T03:40:15;101058.91;;;9.44;100.00
48553;BME280;34335;51.566;6.994;2023-01-05T03:42:44;101064.91;;;9.37;100.00
48553;BME280;34335;51.566;6.994;2023-01-05T03:45:11;101070.06;;;9.33;100.00
48553;BME280;34335;51.566;6.994;2023-01-05T03:47:37;101068.22;;;9.23;100.00
48553;BME280;34335;51.566;6.994;2023-01-05T03:50:02;101060.44;;;9.23;100.00
48553;BME280;34335;51.566;6.994;2023-01-05T03:52:28;101069.03;;;9.17;100.00
48553;BME280;34335;51.566;6.994;2023-01-05T03:54:53;101074.22;;;9.19;100.00
48553;BME280;34335;51.566;6.994;2023-01-05T03:57:18;101059.59;;;9.24;100.00
48553;BME280;34335;51.566;6.994;2023-01-05T03:59:44;101078.56;;;9.20;100.00
48553;BME280;34335;51.566;6.994;2023-01-05T04:02:09;101065.59;;;9.20;100.00
48553;BME280;34335;51.566;6.994;2023-01-05T04:04:34;101077.72;;;9.18;100.00
48553;BME280;34335;51.566;6.994;2023-01-05T04:07:00;101074.13;;;9.10;100.00
48553;BME280;34335;51.566;6.994;2023-01-05T04:09:25;101078.38;;;9.01;100.00
48553;BME280;34335;51.566;6.994;2023-01-05T04:11:50;101076.63;;;8.99;100.00
48553;BME280;34335;51.566;6.994;2023-01-05T04:14:15;101088.63;;;8.92;100.00
48553;BME280;34335;51.566;6.994;2023-01-05T04:16:41;101075.72;;;8.95;100.00
48553;BME280;34335;51.566;6.994;2023-01-05T04:19:06;101086.03;;;8.92;100.00
48553;BME280;34335;51.566;6.994;2023-01-05T04:21:31;101080.00;;;8.92;100.00
48553;BME280;34335;51.566;6.994;2023-01-05T04:23:56;101083.44;;;8.92;100.00
48553;BME280;34335;51.566;6.994;2023-01-05T04:26:22;101090.44;;;8.96;100.00
48553;BME280;34335;51.566;6.994;2023-01-05T04:28:48;101082.59;;;8.93;100.00
48553;BME280;34335;51.566;6.994;2023-01-05T04:31:13;101085.13;;;8.87;100.00
48553;BME280;34335;51.566;6.994;2023-01-05T04:33:38;101084.28;;;8.91;100.00
48553;BME280;34335;51.566;6.994;2023-01-05T04:36:05;101085.25;;;8.96;100.00
48553;BME280;34335;51.566;6.994;2023-01-05T04:38:30;101090.38;;;8.95;100.00
48553;BME280;34335;51.566;6.994;2023-01-05T04:40:56;101090.38;;;8.95;100.00
48553;BME280;34335;51.566;6.994;2023-01-05T04:43:21;101090.38;;;8.93;100.00
48553;BME280;34335;51.566;6.994;2023-01-05T04:45:47;101101.66;;;8.97;100.00
48553;BME280;34335;51.566;6.994;2023-01-05T04:48:12;101098.22;;;8.98;100.00
48553;BME280;34335;51.566;6.994;2023-01-05T04:50:38;101088.69;;;8.95;100.00
48553;BME280;34335;51.566;6.994;2023-01-05T04:53:03;101096.47;;;8.95;100.00
48553;BME280;34335;51.566;6.994;2023-01-05T04:55:28;101098.22;;;8.98;100.00
48553;BME280;34335;51.566;6.994;2023-01-05T04:57:55;101102.56;;;8.97;100.00
48553;BME280;34335;51.566;6.994;2023-01-05T05:00:20;101095.63;;;8.99;100.00
48553;BME280;34335;51.566;6.994;2023-01-05T05:02:46;101091.28;;;8.95;100.00
48553;BME280;34335;51.566;6.994;2023-01-05T05:05:11;101092.97;;;8.93;100.00
48553;BME280;34335;51.566;6.994;2023-01-05T05:07:36;101094.72;;;8.94;100.00
48553;BME280;34335;51.566;6.994;2023-01-05T05:10:01;101088.69;;;8.95;100.00
48553;BME280;34335;51.566;6.994;2023-01-05T05:12:27;101109.44;;;8.95;100.00
48553;BME280;34335;51.566;6.994;2023-01-05T05:14:52;101099.06;;;8.97;100.00
48553;BME280;34335;51.566;6.994;2023-01-05T05:17:17;101100.69;;;8.88;100.00
48553;BME280;34335;51.566;6.994;2023-01-05T05:19:43;101103.19;;;8.79;100.00
48553;BME280;34335;51.566;6.994;2023-01-05T05:22:08;101108.31;;;8.75;100.00
48553;BME280;34335;51.566;6.994;2023-01-05T05:24:34;101119.53;;;8.73;100.00
48553;BME280;34335;51.566;6.994;2023-01-05T05:26:59;101120.34;;;8.69;100.00
48553;BME280;34335;51.566;6.994;2023-01-05T05:29:24;101123.69;;;8.62;100.00
48553;BME280;34335;51.566;6.994;2023-01-05T05:31:50;101121.94;;;8.61;100.00
48553;BME280;34335;51.566;6.994;2023-01-05T05:34:16;101128.00;;;8.60;100.00
48553;BME280;34335;51.566;6.994;2023-01-05T05:36:41;101139.19;;;8.56;100.00
48553;BME280;34335;51.566;6.994;2023-01-05T05:39:07;101145.25;;;8.58;100.00
48553;BME280;34335;51.566;6.994;2023-01-05T05:41:32;101142.63;;;8.55;100.00
48553;BME280;34335;51.566;6.994;2023-01-05T05:43:57;101144.41;;;8.59;100.00
48553;BME280;34335;51.566;6.994;2023-01-05T05:46:26;101147.78;;;8.53;100.00
48553;BME280;34335;51.566;6.994;2023-01-05T05:48:53;101147.81;;;8.56;100.00
48553;BME280;34335;51.566;6.994;2023-01-05T05:51:18;101158.09;;;8.52;100.00
48553;BME280;34335;51.566;6.994;2023-01-05T05:53:43;101162.38;;;8.48;100.00
48553;BME280;34335;51.566;6.994;2023-01-05T05:56:08;101159.84;;;8.51;100.00
48553;BME280;34335;51.566;6.994;2023-01-05T05:58:34;101159.78;;;8.48;100.00
48553;BME280;34335;51.566;6.994;2023-01-05T06:00:59;101159.78;;;8.48;100.00
48553;BME280;34335;51.566;6.994;2023-01-05T06:03:24;101170.97;;;8.46;100.00
48553;BME280;34335;51.566;6.994;2023-01-05T06:05:50;101173.59;;;8.47;100.00
48553;BME280;34335;51.566;6.994;2023-01-05T06:08:15;101172.66;;;8.43;100.00
48553;BME280;34335;51.566;6.994;2023-01-05T06:10:40;101175.22;;;8.42;100.00
48553;BME280;34335;51.566;6.994;2023-01-05T06:13:06;101170.06;;;8.43;100.00
48553;BME280;34335;51.566;6.994;2023-01-05T06:15:31;101179.63;;;8.46;100.00
48553;BME280;34335;51.566;6.994;2023-01-05T06:17:56;101175.25;;;8.43;100.00
48553;BME280;34335;51.566;6.994;2023-01-05T06:20:22;101182.09;;;8.40;100.00
48553;BME280;34335;51.566;6.994;2023-01-05T06:22:47;101183.00;;;8.40;100.00
48553;BME280;34335;51.566;6.994;2023-01-05T06:25:12;101192.53;;;8.45;100.00
48553;BME280;34335;51.566;6.994;2023-01-05T06:27:37;101192.47;;;8.40;100.00
48553;BME280;34335;51.566;6.994;2023-01-05T06:30:03;101189.91;;;8.41;100.00
48553;BME280;34335;51.566;6.994;2023-01-05T06:32:28;101186.44;;;8.42;100.00
48553;BME280;34335;51.566;6.994;2023-01-05T06:34:54;101195.03;;;8.38;100.00
48553;BME280;34335;51.566;6.994;2023-01-05T06:37:19;101195.00;;;8.35;100.00
48553;BME280;34335;51.566;6.994;2023-01-05T06:39:44;101202.00;;;8.41;100.00
48553;BME280;34335;51.566;6.994;2023-01-05T06:42:09;101204.56;;;8.39;100.00
48553;BME280;34335;51.566;6.994;2023-01-05T06:44:35;101208.94;;;8.43;100.00
48553;BME280;34335;51.566;6.994;2023-01-05T06:47:00;101203.75;;;8.43;100.00
48553;BME280;34335;51.566;6.994;2023-01-05T06:49:26;101208.91;;;8.40;100.00
48553;BME280;34335;51.566;6.994;2023-01-05T06:51:52;101214.97;;;8.42;100.00
48553;BME280;34335;51.566;6.994;2023-01-05T06:54:17;101204.50;;;8.36;100.00
48553;BME280;34335;51.566;6.994;2023-01-05T06:56:43;101211.56;;;8.45;100.00
48553;BME280;34335;51.566;6.994;2023-01-05T06:59:10;101209.94;;;8.49;100.00
48553;BME280;34335;51.566;6.994;2023-01-05T07:01:36;101209.09;;;8.50;100.00
48553;BME280;34335;51.566;6.994;2023-01-05T07:04:01;101217.78;;;8.53;100.00
48553;BME280;34335;51.566;6.994;2023-01-05T07:06:26;101222.91;;;8.49;100.00
48553;BME280;34335;51.566;6.994;2023-01-05T07:08:51;101227.22;;;8.50;100.00
48553;BME280;34335;51.566;6.994;2023-01-05T07:11:17;101224.66;;;8.51;100.00
48553;BME280;34335;51.566;6.994;2023-01-05T07:13:46;101223.66;;;8.45;100.00
48553;BME280;34335;51.566;6.994;2023-01-05T07:16:11;101222.81;;;8.46;100.00
48553;BME280;34335;51.566;6.994;2023-01-05T07:18:37;101234.13;;;8.49;100.00
48553;BME280;34335;51.566;6.994;2023-01-05T07:21:02;101228.81;;;8.45;100.00
48553;BME280;34335;51.566;6.994;2023-01-05T07:23:27;101233.22;;;8.47;100.00
48553;BME280;34335;51.566;6.994;2023-01-05T07:25:54;101241.84;;;8.46;100.00
48553;BME280;34335;51.566;6.994;2023-01-05T07:28:19;101240.03;;;8.43;100.00
48553;BME280;34335;51.566;6.994;2023-01-05T07:30:50;101250.41;;;8.43;100.00
48553;BME280;34335;51.566;6.994;2023-01-05T07:33:15;101251.25;;;8.41;100.00
48553;BME280;34335;51.566;6.994;2023-01-05T07:35:40;101259.78;;;8.35;100.00
48553;BME280;34335;51.566;6.994;2023-01-05T07:38:06;101254.63;;;8.37;100.00
48553;BME280;34335;51.566;6.994;2023-01-05T07:40:31;101258.06;;;8.36;100.00
48553;BME280;34335;51.566;6.994;2023-01-05T07:42:56;101250.31;;;8.37;100.00
48553;BME280;34335;51.566;6.994;2023-01-05T07:45:22;101261.59;;;8.39;100.00
48553;BME280;34335;51.566;6.994;2023-01-05T07:47:47;101261.59;;;8.39;100.00
48553;BME280;34335;51.566;6.994;2023-01-05T07:50:12;101263.25;;;8.36;100.00
48553;BME280;34335;51.566;6.994;2023-01-05T07:52:38;101270.22;;;8.38;100.00
48553;BME280;34335;51.566;6.994;2023-01-05T07:55:04;101278.88;;;8.40;100.00
48553;BME280;34335;51.566;6.994;2023-01-05T07:57:30;101280.59;;;8.40;100.00
48553;BME280;34335;51.566;6.994;2023-01-05T07:59:55;101285.81;;;8.41;100.00
48553;BME280;34335;51.566;6.994;2023-01-05T08:02:20;101285.00;;;8.46;100.00
48553;BME280;34335;51.566;6.994;2023-01-05T08:04:46;101284.09;;;8.42;100.00
48553;BME280;34335;51.566;6.994;2023-01-05T08:07:11;101294.47;;;8.43;100.00
48553;BME280;34335;51.566;6.994;2023-01-05T08:09:39;101295.38;;;8.44;100.00
48553;BME280;34335;51.566;6.994;2023-01-05T08:12:22;101299.72;;;8.47;100.00
48553;BME280;34335;51.566;6.994;2023-01-05T08:14:48;101298.88;;;8.46;100.00
48553;BME280;34335;51.566;6.994;2023-01-05T08:17:13;101306.69;;;8.48;100.00
48553;BME280;34335;51.566;6.994;2023-01-05T08:19:38;101298.97;;;8.51;100.00
48553;BME280;34335;51.566;6.994;2023-01-05T08:22:03;101305.88;;;8.52;100.00
48553;BME280;34335;51.566;6.994;2023-01-05T08:24:29;101308.44;;;8.50;100.00
48553;BME280;34335;51.566;6.994;2023-01-05T08:26:54;101304.09;;;8.48;100.00
48553;BME280;34335;51.566;6.994;2023-01-05T08:29:20;101305.78;;;8.47;100.00
48553;BME280;34335;51.566;6.994;2023-01-05T08:31:45;101304.94;;;8.48;100.00
48553;BME280;34335;51.566;6.994;2023-01-05T08:34:11;101309.28;;;8.48;100.00
48553;BME280;34335;51.566;6.994;2023-01-05T08:36:36;101318.88;;;8.53;100.00
48553;BME280;34335;51.566;6.994;2023-01-05T08:39:02;101315.38;;;8.51;100.00
48553;BME280;34335;51.566;6.994;2023-01-05T08:41:31;101322.31;;;8.52;100.00
48553;BME280;34335;51.566;6.994;2023-01-05T08:43:58;101316.31;;;8.55;100.00
48553;BME280;34335;51.566;6.994;2023-01-05T08:46:26;101330.16;;;8.55;100.00
48553;BME280;34335;51.566;6.994;2023-01-05T08:48:54;101327.56;;;8.55;100.00
48553;BME280;34335;51.566;6.994;2023-01-05T08:51:20;101333.69;;;8.59;100.00
48553;BME280;34335;51.566;6.994;2023-01-05T08:53:46;101330.25;;;8.62;100.00
48553;BME280;34335;51.566;6.994;2023-01-05T08:56:12;101335.38;;;8.57;100.00
48553;BME280;34335;51.566;6.994;2023-01-05T08:58:39;101333.72;;;8.62;100.00
48553;BME280;34335;51.566;6.994;2023-01-05T09:01:08;101345.00;;;8.64;100.00
48553;BME280;34335;51.566;6.994;2023-01-05T09:03:34;101340.72;;;8.68;100.00
48553;BME280;34335;51.566;6.994;2023-01-05T09:06:00;101333.84;;;8.70;100.00
48553;BME280;34335;51.566;6.994;2023-01-05T09:08:28;101349.41;;;8.70;100.00
48553;BME280;34335;51.566;6.994;2023-01-05T09:10:53;101348.56;;;8.71;100.00
48553;BME280;34335;51.566;6.994;2023-01-05T09:13:19;101355.50;;;8.73;100.00
48553;BME280;34335;51.566;6.994;2023-01-05T09:15:44;101366.72;;;8.72;100.00
48553;BME280;34335;51.566;6.994;2023-01-05T09:18:09;101365.03;;;8.75;100.00
48553;BME280;34335;51.566;6.994;2023-01-05T09:20:35;101364.19;;;8.76;100.00
48553;BME280;34335;51.566;6.994;2023-01-05T09:23:00;101362.47;;;8.76;100.00
48553;BME280;34335;51.566;6.994;2023-01-05T09:25:25;101365.13;;;8.81;100.00
48553;BME280;34335;51.566;6.994;2023-01-05T09:27:50;101372.13;;;8.83;100.00
48553;BME280;34335;51.566;6.994;2023-01-05T09:30:16;101380.75;;;8.84;100.00
48553;BME280;34335;51.566;6.994;2023-01-05T09:32:41;101382.56;;;8.88;100.00
48553;BME280;34335;51.566;6.994;2023-01-05T09:35:07;101395.56;;;8.89;100.00
48553;BME280;34335;51.566;6.994;2023-01-05T09:37:32;101399.91;;;8.92;100.00
48553;BME280;34335;51.566;6.994;2023-01-05T09:39:57;101399.88;;;8.89;100.00
48553;BME280;34335;51.566;6.994;2023-01-05T09:42:24;101396.47;;;8.92;100.00
48553;BME280;34335;51.566;6.994;2023-01-05T09:44:58;101410.34;;;8.95;100.00
48553;BME280;34335;51.566;6.994;2023-01-05T09:47:32;101405.09;;;8.92;100.00
48553;BME280;34335;51.566;6.994;2023-01-05T09:49:59;101402.56;;;8.94;100.00
48553;BME280;34335;51.566;6.994;2023-01-05T09:52:25;101408.59;;;8.94;100.00
48553;BME280;34335;51.566;6.994;2023-01-05T09:54:50;101406.94;;;8.99;100.00
48553;BME280;34335;51.566;6.994;2023-01-05T09:57:27;101406.09;;;9.00;100.00
48553;BME280;34335;51.566;6.994;2023-01-05T10:00:05;101407.00;;;9.01;100.00
48553;BME280;34335;51.566;6.994;2023-01-05T10:02:49;101408.75;;;9.03;100.00
48553;BME280;34335;51.566;6.994;2023-01-05T10:05:15;101412.25;;;9.04;100.00
48553;BME280;34335;51.566;6.994;2023-01-05T10:07:47;101419.13;;;9.03;100.00
48553;BME280;34335;51.566;6.994;2023-01-05T10:10:23;101413.09;;;9.03;100.00
48553;BME280;34335;51.566;6.994;2023-01-05T10:12:51;101420.03;;;9.06;100.00
48553;BME280;34335;51.566;6.994;2023-01-05T10:15:41;101426.09;;;9.04;100.00
48553;BME280;34335;51.566;6.994;2023-01-05T10:18:11;101424.38;;;9.07;100.00
48553;BME280;34335;51.566;6.994;2023-01-05T10:20:47;101427.00;;;9.10;100.00
48553;BME280;34335;51.566;6.994;2023-01-05T10:23:29;101429.69;;;9.14;100.00
48553;BME280;34335;51.566;6.994;2023-01-05T10:26:14;101431.47;;;9.17;100.00
48553;BME280;34335;51.566;6.994;2023-01-05T10:31:33;101428.84;;;9.15;100.00
48553;BME280;34335;51.566;6.994;2023-01-05T10:39:43;101427.31;;;9.27;100.00
48553;BME280;34335;51.566;6.994;2023-01-05T10:42:19;101428.97;;;9.23;100.00
48553;BME280;34335;51.566;6.994;2023-01-05T10:45:00;101431.63;;;9.26;100.00
48553;BME280;34335;51.566;6.994;2023-01-05T10:47:30;101435.94;;;9.26;100.00
48553;BME280;34335;51.566;6.994;2023-01-05T10:50:00;101435.00;;;9.22;100.00
48553;BME280;34335;51.566;6.994;2023-01-05T10:52:26;101436.75;;;9.23;100.00
48553;BME280;34335;51.566;6.994;2023-01-05T10:54:56;101442.81;;;9.22;100.00
48553;BME280;34335;51.566;6.994;2023-01-05T11:02:30;101445.56;;;9.33;100.00
48553;BME280;34335;51.566;6.994;2023-01-05T11:05:40;101459.50;;;9.37;100.00
48553;BME280;34335;51.566;6.994;2023-01-05T11:08:17;101447.38;;;9.39;100.00
48553;BME280;34335;51.566;6.994;2023-01-05T11:16:00;101456.06;;;9.39;100.00
48553;BME280;34335;51.566;6.994;2023-01-05T11:21:45;101455.38;;;9.52;100.00
48553;BME280;34335;51.566;6.994;2023-01-05T11:26:56;101448.47;;;9.53;100.00
48553;BME280;34335;51.566;6.994;2023-01-05T11:29:26;101441.56;;;9.54;100.00
48553;BME280;34335;51.566;6.994;2023-01-05T11:31:57;101445.97;;;9.59;100.00
48553;BME280;34335;51.566;6.994;2023-01-05T11:34:43;101452.06;;;9.61;100.00
48553;BME280;34335;51.566;6.994;2023-01-05T11:42:13;101443.47;;;9.65;100.00
48553;BME280;34335;51.566;6.994;2023-01-05T11:44:54;101446.03;;;9.64;100.00
48553;BME280;34335;51.566;6.994;2023-01-05T11:49:57;101447.03;;;9.72;100.00
48553;BME280;34335;51.566;6.994;2023-01-05T11:52:36;101442.78;;;9.76;100.00
48553;BME280;34335;51.566;6.994;2023-01-05T11:57:58;101451.28;;;9.65;100.00
48553;BME280;34335;51.566;6.994;2023-01-05T12:00:56;101449.59;;;9.69;100.00
48553;BME280;34335;51.566;6.994;2023-01-05T12:06:21;101442.78;;;9.76;100.00
48553;BME280;34335;51.566;6.994;2023-01-05T12:08:55;101445.31;;;9.71;100.00
48553;BME280;34335;51.566;6.994;2023-01-05T12:11:23;101450.50;;;9.73;100.00
48553;BME280;34335;51.566;6.994;2023-01-05T12:14:07;101460.91;;;9.74;100.00
48553;BME280;34335;51.566;6.994;2023-01-05T12:16:53;101441.88;;;9.77;100.00
48553;BME280;34335;51.566;6.994;2023-01-05T12:19:59;101448.81;;;9.76;100.00
48553;BME280;34335;51.566;6.994;2023-01-05T12:22:54;101447.97;;;9.79;100.00
48553;BME280;34335;51.566;6.994;2023-01-05T12:31:19;101458.38;;;9.79;100.00
48553;BME280;34335;51.566;6.994;2023-01-05T12:34:05;101458.50;;;9.87;100.00
48553;BME280;34335;51.566;6.994;2023-01-05T12:50:31;101462.97;;;9.98;100.00
48553;BME280;34335;51.566;6.994;2023-01-05T12:53:07;101462.13;;;10.01;100.00
48553;BME280;34335;51.566;6.994;2023-01-05T12:55:45;101451.00;;;10.10;100.00
48553;BME280;34335;51.566;6.994;2023-01-05T12:58:35;101451.91;;;10.15;100.00
48553;BME280;34335;51.566;6.994;2023-01-05T13:01:05;101455.34;;;10.11;100.00
48553;BME280;34335;51.566;6.994;2023-01-05T13:03:39;101464.84;;;10.09;100.00
48553;BME280;34335;51.566;6.994;2023-01-05T13:06:08;101453.66;;;10.13;100.00
48553;BME280;34335;51.566;6.994;2023-01-05T13:11:17;101461.47;;;10.14;100.00
48553;BME280;34335;51.566;6.994;2023-01-05T13:13:49;101464.16;;;10.22;100.00
48553;BME280;34335;51.566;6.994;2023-01-05T13:16:20;101448.69;;;10.32;100.00
48553;BME280;34335;51.566;6.994;2023-01-05T13:18:50;101460.84;;;10.36;100.00
48553;BME280;34335;51.566;6.994;2023-01-05T13:21:19;101459.13;;;10.36;100.00
48553;BME280;34335;51.566;6.994;2023-01-05T13:23:51;101466.13;;;10.39;100.00
48553;BME280;34335;51.566;6.994;2023-01-05T13:26:19;101463.44;;;10.33;100.00
48553;BME280;34335;51.566;6.994;2023-01-05T13:28:47;101471.19;;;10.28;100.00
48553;BME280;34335;51.566;6.994;2023-01-05T13:34:07;101463.34;;;10.26;100.00
48553;BME280;34335;51.566;6.994;2023-01-05T13:40:32;101466.84;;;10.28;100.00
48553;BME280;34335;51.566;6.994;2023-01-05T13:53:52;101472.88;;;10.27;100.00
48553;BME280;34335;51.566;6.994;2023-01-05T13:56:24;101472.75;;;10.17;100.00
48553;BME280;34335;51.566;6.994;2023-01-05T13:58:59;101474.56;;;10.22;100.00
48553;BME280;34335;51.566;6.994;2023-01-05T14:01:35;101478.81;;;10.14;100.00
48553;BME280;34335;51.566;6.994;2023-01-05T14:04:02;101465.81;;;10.17;100.00
48553;BME280;34335;51.566;6.994;2023-01-05T14:06:31;101472.78;;;10.20;100.00
48553;BME280;34335;51.566;6.994;2023-01-05T14:09:06;101486.63;;;10.17;100.00
48553;BME280;34335;51.566;6.994;2023-01-05T14:11:34;101484.97;;;10.25;100.00
48553;BME280;34335;51.566;6.994;2023-01-05T14:14:24;101476.44;;;10.33;100.00
48553;BME280;34335;51.566;6.994;2023-01-05T14:16:51;101478.19;;;10.37;100.00
48553;BME280;34335;51.566;6.994;2023-01-05T14:22:02;101473.72;;;10.25;100.00
48553;BME280;34335;51.566;6.994;2023-01-05T14:29:57;101488.19;;;10.06;100.00
48553;BME280;34335;51.566;6.994;2023-01-05T14:34:55;101480.44;;;10.09;100.00
48553;BME280;34335;51.566;6.994;2023-01-05T14:44:21;101479.41;;;9.96;100.00
48553;BME280;34335;51.566;6.994;2023-01-05T14:46:52;101480.25;;;9.93;100.00
48553;BME280;34335;51.566;6.994;2023-01-05T14:49:41;101485.41;;;9.92;100.00
48553;BME280;34335;51.566;6.994;2023-01-05T14:52:19;101487.91;;;9.86;100.00
48553;BME280;34335;51.566;6.994;2023-01-05T15:02:50;101493.06;;;9.82;100.00
48553;BME280;34335;51.566;6.994;2023-01-05T15:05:18;101494.78;;;9.80;100.00
48553;BME280;34335;51.566;6.994;2023-01-05T15:07:52;101493.00;;;9.78;100.00
48553;BME280;34335;51.566;6.994;2023-01-05T15:10:38;101493.84;;;9.75;100.00